Lake Sumner, New Mexico
Current Conditions -  °F | °C
As of 5:56 AM on Monday 22 Dec 2014 (Local Time) from K4MR Reporting Station
Clear Clear  
Wind Chill:   Ceiling: Unl
Heat Index:   Visibility: 10mi
Dew Point: -1°   Wind: 16mph
Humidity: 51%   Direction: 280°W
Pressure: 29.73"   Gusts: NA
Location:  34.3001°N, 104.256°W
Report Text: K4MR 221256Z AUTO 28014KT 10SM CLR 09/M01 A2973 RMK AO2 SLP042 T00871009
Loading
Personal Weather Stations






























Interactive Weather Map New forecast layout! Learn more

10-Day Weather Forecast

Advertisements
Track Severe Weather on mobile